METAR Data
IDs: Format: Raw Decoded Include TAF

Data at: 0127 UTC 20 Jan 2022

LHPA 200045Z 15004KT CAVOK M03/M05 Q1020 NOSIG RMK BLU